San Pedro de Macoris, Dominican Republic

6:58 PM AST on March 27, 2017 (GMT -0400)
SMRD_UNAVCO San Pedro de Macoris | | Change Station

Elev 26 ft 18.46 °N, 69.31 °W | Updated 54 minutes ago

Clear
Clear
82.0 °F
Feels Like 85 °F
N
5.0
Wind Variable Wind from SSW

Today
High -- | Low -- °F
--% Chance of Precip.
Yesterday
High -- | Low -- °F
Precip. -- in
Pressure 29.86 in
Visibility 6.2 miles
Clouds Scattered Clouds 1800 ft
Heat Index 85 °F
Dew Point 69 °F
Humidity 64%
Rainfall 0.00 in
Snow Depth Not available.
6:35 AM 6:49 PM
Waning Crescent, 0% visible
METAR MDLR 272200Z 20008KT 9999 SCT018 27/23 Q1011
Pressure 29.86 in
Visibility 6.2 miles
Clouds Scattered Clouds 1800 ft
Heat Index 85 °F
Dew Point 69 °F
Humidity 64%
Rainfall 0.00 in
Snow Depth Not available.
6:35 AM 6:49 PM
Waning Crescent, 0% visible
METAR MDLR 272200Z 20008KT 9999 SCT018 27/23 Q1011

Get Severe Weather Alerts

Thanks for signing up!

Be on the lookout for a verification email in your inbox.

You'll start receiving the daily forecast at 8 AM.

×

10-Day Weather Forecast

No radar image for this location.
×

Almanac

Astronomy

Mar. 27, 2017 Rise Set
Actual Time
Civil Twilight
Nautical Twilight
Astronomical Twilight
Moon
Length of Visible Light
Length of Day
Tomorrow will be .
, % of the Moon is Illuminated

Today's Extremes

Country Highs Country Lows

Community

WunderPhotos

Upload Photos

1,962,540 photos uploaded!

WunderBlog® & News

Nearby

Air Quality

  Air Quality AQ Index Pollutant
Not available.

Snow Depth

Station Depth Elevation

Earthquake Activity

City Distance Mag. Time & Date
Minimum magnitude displayed is 2.5.

Earthquake Activity

City Distance Mag. Time & Date
Minimum magnitude displayed is 2.5.

Coastal Water Temperatures

Place Temperature

Stations

Nearby Weather Stations

Station Location Temp. Windchill Dew Point Humidity Wind Precip. Elev Updated Type